Time;durP1;ratioP1;P1;durP2;ratioP2;P2;SDS_P1;SDS_P2;PMS_P1;PMS_P2;Temp;Humidity;BMP_temperature;BMP_pressure;BME280_temperature;BME280_humidity;BME280_pressure;Samples;Min_cycle;Max_cycle;Signal;HPM_P1;HPM_P2
2021/04/06 00:00:28;;;;;;;12.45;3.42;;;;;;;1.17;85.14;101152.53;1037879;28;20196;-83
2021/04/06 00:01:01;;;;;;;10.55;3.40;;;;;;;1.15;84.89;101141.41;1036247;28;20092;-83
2021/04/06 00:01:36;;;;;;;11.65;3.03;;;;;;;1.10;84.90;101127.50;1032175;28;20058;-83
2021/04/06 00:02:14;;;;;;;8.32;3.22;;;;;;;1.18;85.30;101139.00;1034909;28;20133;-82
2021/04/06 00:02:49;;;;;;;9.05;2.38;;;;;;;1.21;84.46;101134.09;1034230;28;20053;-83
2021/04/06 00:03:25;;;;;;;10.57;2.85;;;;;;;1.15;84.50;101131.22;1036205;28;20120;-82
2021/04/06 00:03:57;;;;;;;11.93;2.78;;;;;;;1.25;84.17;101138.59;1036294;28;20500;-82
2021/04/06 00:04:33;;;;;;;11.52;2.50;;;;;;;1.23;84.76;101139.28;1033890;28;20147;-82
2021/04/06 00:05:07;;;;;;;14.30;5.97;;;;;;;1.25;84.21;101145.34;1032526;28;20054;-82
2021/04/06 00:05:42;;;;;;;10.68;2.67;;;;;;;1.28;83.89;101141.28;1034095;28;20495;-83
2021/04/06 00:06:15;;;;;;;10.23;3.20;;;;;;;1.20;84.18;101136.56;1038227;28;20042;-83
2021/04/06 00:06:50;;;;;;;13.95;4.85;;;;;;;1.16;84.39;101124.44;1040338;28;20124;-83
2021/04/06 00:07:23;;;;;;;14.80;3.50;;;;;;;1.18;84.44;101133.91;1036342;28;20046;-83
2021/04/06 00:07:58;;;;;;;13.35;3.88;;;;;;;1.15;84.69;101138.84;1033650;28;20054;-82
2021/04/06 00:08:31;;;;;;;33.47;6.38;;;;;;;1.15;85.29;101137.97;1032223;28;20054;-82
2021/04/06 00:09:07;;;;;;;15.40;3.22;;;;;;;1.11;85.43;101124.16;1033518;28;20556;-81
2021/04/06 00:09:42;;;;;;;17.55;4.40;;;;;;;1.08;85.33;101118.91;1038025;28;20201;-81
2021/04/06 00:10:21;;;;;;;12.70;3.60;;;;;;;1.20;85.61;101137.44;1038287;28;20047;-83
2021/04/06 00:10:56;;;;;;;12.70;4.13;;;;;;;1.12;85.60;101118.28;1040350;28;20632;-82
2021/04/06 00:11:28;;;;;;;8.40;2.15;;;;;;;1.13;84.82;101120.03;1040286;28;20535;-83
2021/04/06 00:12:05;;;;;;;10.40;3.15;;;;;;;1.17;84.73;101124.50;1040346;28;20487;-83
2021/04/06 00:12:38;;;;;;;7.72;3.28;;;;;;;1.21;84.44;101125.56;1040828;28;20050;-83
2021/04/06 00:13:10;;;;;;;19.95;4.28;;;;;;;1.19;84.07;101120.41;1040246;28;20408;-82
2021/04/06 00:13:43;;;;;;;14.43;2.88;;;;;;;1.19;84.38;101127.16;1040461;28;20053;-83
2021/04/06 00:14:17;;;;;;;16.48;4.38;;;;;;;1.24;83.63;101131.72;1036134;28;20061;-81
2021/04/06 00:14:52;;;;;;;15.00;3.55;;;;;;;1.13;84.03;101125.13;1033391;28;20077;-82
2021/04/06 00:15:27;;;;;;;11.48;3.63;;;;;;;1.12;83.84;101118.28;1032334;28;20054;-81
2021/04/06 00:16:03;;;;;;;12.50;3.10;;;;;;;1.20;83.26;101126.38;1030020;28;20058;-82
2021/04/06 00:16:35;;;;;;;5.18;1.52;;;;;;;1.19;82.49;101119.50;1030225;28;20043;-82
2021/04/06 00:17:10;;;;;;;10.60;3.35;;;;;;;1.22;82.75;101135.84;1033866;28;20116;-83
2021/04/06 00:17:46;;;;;;;20.67;3.33;;;;;;;1.25;82.36;101136.03;1034427;28;20069;-82
2021/04/06 00:18:19;;;;;;;18.98;4.78;;;;;;;1.13;82.63;101122.56;1034063;28;20046;-82
2021/04/06 00:18:52;;;;;;;11.57;4.10;;;;;;;1.18;82.74;101144.09;1032167;28;20045;-83
2021/04/06 00:19:26;;;;;;;12.32;3.92;;;;;;;1.19;82.59;101148.44;1029790;28;20134;-82
2021/04/06 00:20:02;;;;;;;16.63;3.65;;;;;;;1.16;83.15;101150.78;1033415;28;20046;-82
2021/04/06 00:20:36;;;;;;;9.65;3.22;;;;;;;1.12;82.32;101140.34;1033861;28;20475;-82
2021/04/06 00:21:08;;;;;;;14.95;3.60;;;;;;;1.16;82.55;101155.00;1037942;28;20116;-82
2021/04/06 00:21:40;;;;;;;14.38;4.05;;;;;;;1.14;82.62;101152.38;1040244;28;20420;-82
2021/04/06 00:22:14;;;;;;;9.95;3.83;;;;;;;1.16;81.65;101157.56;1040343;28;20075;-83
2021/04/06 00:22:47;;;;;;;14.40;3.03;;;;;;;1.13;81.87;101150.59;1036186;28;20072;-82
2021/04/06 00:23:19;;;;;;;11.93;3.00;;;;;;;1.20;81.55;101157.81;1036189;28;20076;-82
2021/04/06 00:23:52;;;;;;;8.93;2.45;;;;;;;1.18;82.16;101166.16;1033253;28;20047;-82
2021/04/06 00:24:26;;;;;;;16.65;4.38;;;;;;;1.11;81.60;101149.66;1033138;28;20051;-82
2021/04/06 00:24:59;;;;;;;7.18;3.05;;;;;;;1.18;81.46;101146.66;1032164;28;20073;-82
2021/04/06 00:25:34;;;;;;;14.70;3.83;;;;;;;1.19;81.90;101148.44;1035631;28;20475;-81
2021/04/06 00:26:06;;;;;;;13.43;3.80;;;;;;;1.14;82.05;101141.31;1037684;28;20590;-82
2021/04/06 00:26:46;;;;;;;13.25;3.10;;;;;;;1.15;82.22;101148.16;1040267;28;20045;-82
2021/04/06 00:27:29;;;;;;;14.50;4.78;;;;;;;1.08;83.00;101149.50;1040268;28;20049;-82
2021/04/06 00:28:04;;;;;;;6.70;2.08;;;;;;;1.11;82.65;101149.66;1040301;28;20132;-82
2021/04/06 00:28:37;;;;;;;7.30;3.40;;;;;;;1.06;82.65;101138.31;1036534;28;20050;-82
2021/04/06 00:29:08;;;;;;;10.40;3.90;;;;;;;1.10;83.01;101153.00;1039044;28;20520;-80
2021/04/06 00:29:43;;;;;;;14.55;4.10;;;;;;;1.11;83.18;101144.53;1036213;28;20057;-82
2021/04/06 00:30:22;;;;;;;16.00;4.00;;;;;;;1.10;83.55;101144.47;1037446;28;20112;-82
2021/04/06 00:30:54;;;;;;;12.35;4.20;;;;;;;1.07;83.58;101145.16;1032158;28;20046;-82
2021/04/06 00:31:25;;;;;;;20.30;5.18;;;;;;;1.12;83.37;101145.44;1031806;28;20410;-81
2021/04/06 00:31:57;;;;;;;15.52;3.63;;;;;;;1.05;83.42;101137.44;1030479;28;20169;-82
2021/04/06 00:32:29;;;;;;;16.02;3.55;;;;;;;1.11;83.47;101148.78;1025166;28;20063;-82
2021/04/06 00:33:09;;;;;;;12.68;3.47;;;;;;;1.10;83.78;101150.44;1028402;28;20047;-82
2021/04/06 00:33:45;;;;;;;15.23;4.55;;;;;;;1.02;83.54;101136.38;1030024;28;20080;-82
2021/04/06 00:34:21;;;;;;;14.45;3.50;;;;;;;1.08;83.76;101146.94;1032100;28;20509;-81
2021/04/06 00:34:56;;;;;;;16.30;4.70;;;;;;;1.11;84.77;101156.41;1035024;28;20433;-81
2021/04/06 00:35:30;;;;;;;10.60;3.47;;;;;;;1.10;84.24;101158.09;1032666;28;20133;-82
2021/04/06 00:36:04;;;;;;;10.13;3.13;;;;;;;1.11;84.57;101164.06;1032126;28;20137;-82
2021/04/06 00:36:36;;;;;;;9.48;3.03;;;;;;;1.01;84.50;101145.69;1030560;28;20069;-82
2021/04/06 00:37:14;;;;;;;12.52;3.10;;;;;;;1.06;84.46;101156.13;1029368;28;20047;-82
2021/04/06 00:37:49;;;;;;;20.50;5.10;;;;;;;1.02;84.71;101155.09;1034395;28;20396;-81
2021/04/06 00:38:24;;;;;;;21.35;4.35;;;;;;;1.04;84.86;101155.19;1038447;28;20085;-81
2021/04/06 00:38:55;;;;;;;20.52;4.75;;;;;;;1.03;84.90;101155.97;1040616;28;20199;-81
2021/04/06 00:39:35;;;;;;;11.85;2.88;;;;;;;1.02;85.16;101152.56;1040409;28;20056;-81
2021/04/06 00:40:09;;;;;;;15.63;3.33;;;;;;;1.03;85.39;101153.44;1036258;28;20184;-81
2021/04/06 00:40:43;;;;;;;22.10;3.95;;;;;;;1.03;85.33;101161.06;1038011;28;20124;-81
2021/04/06 00:41:15;;;;;;;20.58;4.32;;;;;;;0.97;85.35;101142.91;1036200;28;20053;-81
2021/04/06 00:41:46;;;;;;;13.20;4.15;;;;;;;0.97;85.19;101150.53;1032124;28;20046;-81
2021/04/06 00:42:19;;;;;;;15.07;3.05;;;;;;;1.03;85.65;101156.84;1032944;28;20046;-82
2021/04/06 00:42:59;;;;;;;16.45;4.18;;;;;;;1.01;85.72;101175.38;1036807;28;20049;-82
2021/04/06 00:43:38;;;;;;;23.42;4.50;;;;;;;1.05;85.89;101177.31;1040309;28;20053;-82
2021/04/06 00:44:13;;;;;;;16.17;3.97;;;;;;;1.04;86.21;101162.81;1036198;28;20526;-81
2021/04/06 00:44:51;;;;;;;16.85;3.38;;;;;;;0.98;85.78;101160.81;1039760;28;20045;-82
2021/04/06 00:45:22;;;;;;;15.40;4.07;;;;;;;0.99;85.50;101164.22;1036128;28;20136;-82
2021/04/06 00:45:54;;;;;;;15.32;3.75;;;;;;;1.00;85.85;101174.50;1033756;28;20399;-82
2021/04/06 00:46:28;;;;;;;12.60;4.13;;;;;;;0.94;85.96;101163.94;1031964;28;20061;-82
2021/04/06 00:47:00;;;;;;;17.48;4.18;;;;;;;0.96;85.88;101161.47;1033216;28;20054;-81
2021/04/06 00:47:34;;;;;;;20.25;4.47;;;;;;;1.00;85.91;101166.84;1037022;28;20052;-82
2021/04/06 00:48:19;;;;;;;15.15;3.85;;;;;;;0.94;85.60;101157.97;1040205;28;20479;-81
2021/04/06 00:48:54;;;;;;;17.63;4.25;;;;;;;0.99;85.92;101167.66;1040085;28;20204;-81
2021/04/06 00:49:29;;;;;;;13.98;4.38;;;;;;;0.96;85.91;101162.34;1040224;28;20135;-82
2021/04/06 00:50:07;;;;;;;15.18;4.30;;;;;;;0.98;86.25;101163.34;1039555;28;20067;-81
2021/04/06 00:50:44;;;;;;;15.95;4.15;;;;;;;0.97;86.02;101158.19;1035950;28;20497;-82
2021/04/06 00:51:18;;;;;;;15.98;4.93;;;;;;;0.97;85.83;101153.06;1032131;28;20046;-81
2021/04/06 00:51:53;;;;;;;13.25;2.63;;;;;;;1.00;86.18;101171.94;1034332;28;20058;-82
2021/04/06 00:52:25;;;;;;;11.65;3.75;;;;;;;0.94;86.56;101157.97;1033940;28;20093;-81
2021/04/06 00:52:57;;;;;;;16.15;3.97;;;;;;;0.90;86.16;101151.81;1033568;28;20053;-81
2021/04/06 00:54:04;;;;;;;12.60;2.38;;;;;;;1.00;85.91;101171.06;1035907;28;20102;-83
2021/04/06 00:54:36;;;;;;;11.57;3.67;;;;;;;0.99;86.12;101166.78;1041264;28;20188;-81
2021/04/06 00:55:08;;;;;;;18.27;4.57;;;;;;;0.92;86.96;101155.34;1035179;28;20054;-81
2021/04/06 00:55:40;;;;;;;16.58;5.88;;;;;;;0.99;86.40;101171.88;1031968;28;20108;-81
2021/04/06 00:56:16;;;;;;;15.20;3.78;;;;;;;0.93;86.73;101161.31;1032164;28;20137;-82
2021/04/06 00:56:47;;;;;;;13.43;4.43;;;;;;;0.85;86.52;101155.78;1033383;28;20050;-83
2021/04/06 00:57:22;;;;;;;21.25;5.00;;;;;;;0.88;86.72;101160.16;1036138;28;20056;-82
2021/04/06 00:57:56;;;;;;;11.68;4.90;;;;;;;0.90;86.74;101156.03;1033580;28;20086;-81
2021/04/06 00:58:27;;;;;;;5.65;1.92;;;;;;;0.89;86.29;101150.06;1033307;28;20486;-82
2021/04/06 00:59:02;;;;;;;14.43;3.58;;;;;;;0.88;86.00;101153.41;1032069;28;20478;-82
2021/04/06 00:59:33;;;;;;;16.55;4.80;;;;;;;0.88;86.08;101162.72;1029228;28;20557;-81
2021/04/06 01:00:10;;;;;;;24.08;5.50;;;;;;;0.87;86.28;101164.38;1032139;28;20050;-81
2021/04/06 01:00:42;;;;;;;12.50;3.30;;;;;;;0.84;86.36;101158.22;1029642;28;20050;-81
2021/04/06 01:01:13;;;;;;;17.73;5.07;;;;;;;0.81;87.03;101145.34;1033536;28;20129;-81
2021/04/06 01:02:07;;;;;;;19.77;3.83;;;;;;;0.85;86.26;101154.88;1033169;28;20162;-81
2021/04/06 01:02:56;;;;;;;11.27;2.95;;;;;;;0.79;86.16;101146.13;1026884;28;20043;-81
2021/04/06 01:03:27;;;;;;;17.10;4.05;;;;;;;0.82;86.48;101147.97;1033773;28;20521;-81
2021/04/06 01:03:58;;;;;;;17.73;4.32;;;;;;;0.79;86.53;101145.22;1032109;28;20057;-81
2021/04/06 01:04:35;;;;;;;12.85;3.55;;;;;;;0.82;87.14;101142.00;1030777;28;20196;-81
2021/04/06 01:05:07;;;;;;;13.90;3.67;;;;;;;0.82;86.45;101147.97;1033255;28;20137;-83
2021/04/06 01:06:06;;;;;;;6.88;2.10;;;;;;;0.77;86.13;101149.34;1037292;28;20046;-82
2021/04/06 01:06:56;;;;;;;13.07;3.20;;;;;;;0.79;86.22;101151.22;1036107;28;20078;-82
2021/04/06 01:07:27;;;;;;;11.82;3.75;;;;;;;0.79;86.33;101147.75;1032080;28;20046;-81
2021/04/06 01:08:02;;;;;;;11.13;2.42;;;;;;;0.74;85.97;101132.25;1032056;28;20481;-83
2021/04/06 01:08:37;;;;;;;11.63;4.60;;;;;;;0.81;85.68;101150.44;1038717;28;20591;-82
2021/04/06 01:09:09;;;;;;;19.55;5.07;;;;;;;0.81;86.20;101150.44;1036111;28;20046;-81
2021/04/06 01:09:52;;;;;;;13.98;2.95;;;;;;;0.80;86.70;101147.00;1031983;28;20050;-81
2021/04/06 01:10:25;;;;;;;19.55;3.83;;;;;;;0.79;86.24;101146.13;1031847;28;20046;-82
2021/04/06 01:10:57;;;;;;;10.68;2.63;;;;;;;0.81;85.79;101156.41;1030319;28;20174;-83
2021/04/06 01:11:29;;;;;;;14.18;3.85;;;;;;;0.79;85.42;101147.75;1034252;28;20058;-81
2021/04/06 01:12:03;;;;;;;17.33;3.85;;;;;;;0.83;85.20;101153.94;1036961;28;20056;-81
2021/04/06 01:12:34;;;;;;;15.80;5.05;;;;;;;0.76;85.14;101142.50;1040144;28;20057;-82
2021/04/06 01:13:05;;;;;;;11.35;3.75;;;;;;;0.82;85.23;101155.59;1040024;28;20050;-81
2021/04/06 01:13:36;;;;;;;13.52;3.53;;;;;;;0.79;85.24;101152.84;1036110;28;20433;-81
2021/04/06 01:14:15;;;;;;;14.68;4.05;;;;;;;0.74;85.68;101150.06;1032084;28;20074;-82
2021/04/06 01:14:48;;;;;;;8.48;2.67;;;;;;;0.77;84.94;101146.81;1031983;28;20494;-82
2021/04/06 01:15:22;;;;;;;10.52;2.60;;;;;;;0.76;84.51;101148.47;1031243;28;20610;-81
2021/04/06 01:15:54;;;;;;;13.65;3.22;;;;;;;0.72;84.64;101146.53;1037946;28;20058;-80
2021/04/06 01:16:25;;;;;;;3.45;1.48;;;;;;;0.75;85.21;101151.81;1036026;28;20046;-82
2021/04/06 01:16:57;;;;;;;12.43;3.35;;;;;;;0.80;84.36;101159.72;1031872;28;20046;-82
2021/04/06 01:17:32;;;;;;;8.57;3.35;;;;;;;0.77;84.62;101155.31;1032535;28;20050;-81
2021/04/06 01:18:04;;;;;;;12.05;3.80;;;;;;;0.80;84.35;101159.72;1032972;28;20050;-80
2021/04/06 01:18:39;;;;;;;7.35;2.03;;;;;;;0.81;84.27;101155.53;1037508;28;20061;-81
2021/04/06 01:19:12;;;;;;;19.02;5.38;;;;;;;0.83;84.24;101159.03;1036265;28;20056;-81
2021/04/06 01:19:44;;;;;;;12.00;3.03;;;;;;;0.81;84.37;101158.06;1037375;28;20506;-80
2021/04/06 01:20:18;;;;;;;13.73;4.45;;;;;;;0.79;84.73;101161.41;1032208;28;20573;-81
2021/04/06 01:20:55;;;;;;;19.23;3.78;;;;;;;0.72;84.84;101155.84;1033074;28;20054;-81
2021/04/06 01:21:26;;;;;;;14.10;3.25;;;;;;;0.75;84.75;101156.03;1027974;28;20055;-80
2021/04/06 01:21:59;;;;;;;17.17;4.05;;;;;;;0.71;84.16;101151.53;1030990;28;20447;-81
2021/04/06 01:22:31;;;;;;;9.73;2.22;;;;;;;0.80;84.42;101167.38;1036056;28;20054;-82
2021/04/06 01:23:09;;;;;;;12.63;3.25;;;;;;;0.83;83.93;101162.44;1033651;28;20133;-81
2021/04/06 01:23:41;;;;;;;11.23;3.53;;;;;;;0.81;84.04;101160.59;1040153;28;20060;-80
2021/04/06 01:24:13;;;;;;;11.48;3.05;;;;;;;0.79;84.37;101166.50;1037890;28;20552;-81
2021/04/06 01:24:45;;;;;;;4.55;2.00;;;;;;;0.81;84.09;101165.69;1036080;28;20045;-80
2021/04/06 01:25:19;;;;;;;21.58;5.28;;;;;;;0.84;83.81;101163.31;1031977;28;20719;-81
2021/04/06 01:25:56;;;;;;;15.85;3.97;;;;;;;0.81;83.81;101160.59;1032935;28;20518;-81
2021/04/06 01:26:27;;;;;;;20.42;4.82;;;;;;;0.79;84.29;101161.41;1033685;28;20133;-80
2021/04/06 01:27:01;;;;;;;17.90;4.68;;;;;;;0.72;84.67;101156.72;1036046;28;20054;-81
2021/04/06 01:27:32;;;;;;;20.58;4.30;;;;;;;0.82;84.15;101167.44;1037531;28;20052;-80
2021/04/06 01:28:05;;;;;;;13.82;4.13;;;;;;;0.76;83.89;101155.25;1036014;28;20046;-80
2021/04/06 01:28:38;;;;;;;17.50;4.07;;;;;;;0.78;84.15;101167.25;1031941;28;20050;-81
2021/04/06 01:29:09;;;;;;;15.30;3.72;;;;;;;0.78;84.80;101159.63;1028760;28;20132;-80
2021/04/06 01:29:47;;;;;;;16.27;4.53;;;;;;;0.81;84.59;101168.25;1032866;28;20487;-80
2021/04/06 01:30:22;;;;;;;17.98;4.13;;;;;;;0.76;84.96;101157.78;1037416;28;20596;-80
2021/04/06 01:30:54;;;;;;;9.88;3.42;;;;;;;0.77;84.89;101168.06;1034106;28;20103;-80
2021/04/06 01:31:26;;;;;;;12.02;3.03;;;;;;;0.73;84.44;101157.59;1033855;28;20578;-80
2021/04/06 01:31:59;;;;;;;20.50;5.32;;;;;;;0.81;84.36;101166.56;1033061;28;20082;-80
2021/04/06 01:32:30;;;;;;;18.25;4.63;;;;;;;0.77;84.33;101154.44;1035818;28;20058;-80
2021/04/06 01:33:01;;;;;;;12.60;3.88;;;;;;;0.83;84.10;101153.94;1036045;28;20060;-80
2021/04/06 01:33:33;;;;;;;17.33;4.13;;;;;;;0.76;84.36;101155.25;1036640;28;20092;-80
2021/04/06 01:34:05;;;;;;;8.02;2.47;;;;;;;0.82;84.43;101164.91;1040165;28;20052;-80
2021/04/06 01:34:39;;;;;;;11.77;2.92;;;;;;;0.78;84.35;101151.97;1036780;28;20465;-80
2021/04/06 01:35:10;;;;;;;21.08;4.35;;;;;;;0.84;84.19;101161.66;1041161;28;20045;-80
2021/04/06 01:35:46;;;;;;;14.75;4.20;;;;;;;0.82;84.69;101159.81;1039939;28;20095;-80
2021/04/06 01:36:25;;;;;;;16.17;3.65;;;;;;;0.81;84.50;101158.06;1040120;28;20045;-80
2021/04/06 01:36:57;;;;;;;10.88;3.80;;;;;;;0.78;85.14;101159.63;1040204;28;20087;-80
2021/04/06 01:37:28;;;;;;;15.85;3.08;;;;;;;0.79;84.96;101156.31;1037831;28;20428;-80
2021/04/06 01:38:03;;;;;;;8.93;2.40;;;;;;;0.84;84.67;101155.69;1038040;28;20541;-81
2021/04/06 01:38:39;;;;;;;8.88;3.25;;;;;;;0.86;84.43;101156.66;1041146;28;20050;-80
2021/04/06 01:39:15;;;;;;;10.30;2.95;;;;;;;0.88;84.36;101165.25;1044342;28;20118;-80
2021/04/06 01:39:50;;;;;;;13.88;4.68;;;;;;;0.85;84.85;101152.34;1044099;28;20052;-80
2021/04/06 01:40:21;;;;;;;18.77;5.43;;;;;;;0.86;84.80;101154.13;1044101;28;20534;-80
2021/04/06 01:40:57;;;;;;;10.23;4.45;;;;;;;0.88;84.88;101150.88;1044169;28;20056;-81
2021/04/06 01:41:28;;;;;;;24.75;4.45;;;;;;;0.79;84.55;101145.22;1044356;28;20049;-80
2021/04/06 01:42:06;;;;;;;11.18;3.47;;;;;;;0.88;84.94;101163.59;1043194;28;20044;-80
2021/04/06 01:42:40;;;;;;;16.23;4.53;;;;;;;0.81;85.42;101143.66;1040117;28;20060;-80
2021/04/06 01:43:15;;;;;;;17.35;4.70;;;;;;;0.87;85.10;101154.19;1040145;28;20547;-81
2021/04/06 01:43:48;;;;;;;9.70;4.00;;;;;;;0.85;84.83;101153.25;1042228;28;20091;-80
2021/04/06 01:44:20;;;;;;;15.02;4.18;;;;;;;0.77;85.26;101140.03;1044231;28;20144;-80
2021/04/06 01:44:53;;;;;;;17.73;4.53;;;;;;;0.87;85.14;101158.41;1039945;28;20180;-81
2021/04/06 01:45:24;;;;;;;18.15;5.38;;;;;;;0.87;84.84;101153.31;1040901;28;20060;-81
2021/04/06 01:46:04;;;;;;;15.68;3.65;;;;;;;0.86;84.84;101151.56;1039857;28;20049;-82
2021/04/06 01:46:44;;;;;;;19.60;5.55;;;;;;;0.89;85.19;101162.81;1039990;28;20076;-80
2021/04/06 01:47:17;;;;;;;19.10;3.72;;;;;;;0.86;85.58;101162.63;1035960;28;20347;-81
2021/04/06 01:47:51;;;;;;;21.67;3.55;;;;;;;0.89;84.98;101156.81;1038952;28;20053;-81
2021/04/06 01:48:22;;;;;;;20.02;4.57;;;;;;;0.90;84.68;101161.13;1030008;28;20046;-81
2021/04/06 01:48:54;;;;;;;12.48;3.75;;;;;;;0.88;84.96;101142.34;1032013;28;20057;-80
2021/04/06 01:49:28;;;;;;;19.10;5.15;;;;;;;0.88;85.18;101157.63;1032775;28;20127;-80
2021/04/06 01:50:00;;;;;;;17.48;3.78;;;;;;;0.87;85.01;101154.19;1034406;28;20084;-81
2021/04/06 01:50:31;;;;;;;15.25;4.88;;;;;;;0.90;85.39;101153.50;1040166;28;20107;-81
2021/04/06 01:51:03;;;;;;;16.90;4.80;;;;;;;0.82;85.11;101139.44;1036890;28;20050;-81
2021/04/06 01:51:34;;;;;;;16.58;4.75;;;;;;;0.85;84.85;101140.50;1040683;28;20049;-80
2021/04/06 01:52:06;;;;;;;14.85;4.43;;;;;;;0.93;84.18;101148.59;1044173;28;20394;-81
2021/04/06 01:52:39;;;;;;;19.08;4.68;;;;;;;0.94;84.63;101147.78;1040128;28;20052;-81
2021/04/06 01:53:10;;;;;;;19.15;4.55;;;;;;;0.93;84.43;101156.22;1039975;28;20234;-81
2021/04/06 01:53:44;;;;;;;16.63;4.38;;;;;;;0.85;84.95;101137.97;1041201;28;20049;-80
2021/04/06 01:54:16;;;;;;;11.88;3.80;;;;;;;0.97;82.90;101142.91;1039811;28;20475;-80
2021/04/06 01:54:57;;;;;;;13.32;2.15;;;;;;;1.01;82.18;101140.59;1037022;28;20157;-82
2021/04/06 01:55:35;;;;;;;5.53;1.20;;;;;;;1.05;81.51;101134.88;1040053;28;20049;-80
2021/04/06 01:56:11;;;;;;;9.02;2.08;;;;;;;1.15;81.70;101151.59;1034768;28;20436;-82
2021/04/06 01:56:53;;;;;;;18.92;4.32;;;;;;;1.05;82.28;101139.97;1039121;28;20064;-81
2021/04/06 01:57:36;;;;;;;12.15;3.58;;;;;;;1.02;82.50;101138.91;1040111;28;20072;-81
2021/04/06 01:58:09;;;;;;;7.43;2.10;;;;;;;1.01;82.17;101138.03;1039915;28;20045;-82
2021/04/06 01:58:44;;;;;;;7.25;3.25;;;;;;;1.15;81.61;101150.72;1035866;28;20054;-80
2021/04/06 01:59:33;;;;;;;12.10;4.00;;;;;;;1.09;81.88;101150.38;1036044;28;20544;-81
2021/04/06 02:00:44;;;;;;;18.88;4.75;;;;;;;1.09;82.43;101151.25;1031969;28;20136;-81
2021/04/06 02:01:23;;;;;;;15.23;4.45;;;;;;;1.01;82.63;101138.03;1040982;28;20188;-80
2021/04/06 02:01:56;;;;;;;14.95;4.55;;;;;;;0.97;83.31;101137.81;1044252;28;20198;-81
2021/04/06 02:02:29;;;;;;;21.05;4.40;;;;;;;1.00;83.50;101145.59;1044245;28;20084;-81
2021/04/06 02:03:06;;;;;;;11.48;5.10;;;;;;;0.96;83.55;101139.44;1040010;28;20489;-81
2021/04/06 02:03:44;;;;;;;17.30;4.57;;;;;;;0.96;83.53;101141.97;1032089;28;20046;-81
2021/04/06 02:04:19;;;;;;;13.25;4.05;;;;;;;0.95;83.47;101137.69;1034572;28;20090;-81
2021/04/06 02:04:58;;;;;;;15.70;3.50;;;;;;;0.91;83.10;101127.22;1031308;28;20051;-81
2021/04/06 02:05:31;;;;;;;17.83;3.72;;;;;;;0.97;82.98;101137.81;1032287;28;20046;-81
2021/04/06 02:06:02;;;;;;;21.40;5.13;;;;;;;1.01;82.84;101137.16;1034689;28;20061;-81
2021/04/06 02:06:36;;;;;;;18.50;5.28;;;;;;;0.99;82.94;101138.75;1036015;28;20050;-81
2021/04/06 02:07:11;;;;;;;14.70;4.75;;;;;;;0.99;82.76;101138.75;1041892;28;20049;-80
2021/04/06 02:07:45;;;;;;;22.83;3.38;;;;;;;1.03;82.85;101136.47;1040927;28;20440;-81
2021/04/06 02:08:19;;;;;;;6.30;2.00;;;;;;;1.02;82.59;101144.00;1042261;28;20045;-81
2021/04/06 02:08:51;;;;;;;10.90;2.42;;;;;;;1.06;82.08;101143.41;1045005;28;20052;-83
2021/04/06 02:09:22;;;;;;;13.65;2.75;;;;;;;1.02;82.03;101134.72;1040885;28;20041;-81
2021/04/06 02:09:54;;;;;;;14.20;4.25;;;;;;;1.03;82.48;101140.69;1040915;28;20060;-81
2021/04/06 02:10:25;;;;;;;8.18;3.38;;;;;;;1.01;82.40;101137.16;1040841;28;20441;-82
2021/04/06 02:10:58;;;;;;;17.33;4.32;;;;;;;1.05;82.13;101137.44;1040810;28;20045;-82
2021/04/06 02:11:37;;;;;;;17.52;5.07;;;;;;;0.99;82.12;101134.53;1037474;28;20956;-81
2021/04/06 02:12:08;;;;;;;18.27;4.07;;;;;;;0.98;82.92;101137.88;1036778;28;20187;-81
2021/04/06 02:12:42;;;;;;;8.05;2.20;;;;;;;0.97;82.34;101136.13;1038344;28;20045;-81
2021/04/06 02:13:15;;;;;;;15.73;3.67;;;;;;;0.95;82.43;101137.69;1036789;28;20053;-81
2021/04/06 02:13:49;;;;;;;5.78;2.03;;;;;;;1.04;81.22;101133.13;1034085;28;20046;-82
2021/04/06 02:14:25;;;;;;;11.05;3.40;;;;;;;1.06;81.06;101135.75;1038107;28;20569;-81
2021/04/06 02:15:01;;;;;;;16.67;3.90;;;;;;;1.05;81.31;101134.00;1032770;28;20072;-81
2021/04/06 02:15:32;;;;;;;10.15;3.15;;;;;;;1.02;81.79;101144.00;1034681;28;20429;-81
2021/04/06 02:16:04;;;;;;;8.50;1.95;;;;;;;1.02;81.33;101137.28;1036776;28;20474;-80
2021/04/06 02:17:01;;;;;;;20.50;3.67;;;;;;;1.02;81.61;101138.91;1037940;28;20046;-80
2021/04/06 02:17:32;;;;;;;16.58;4.15;;;;;;;0.93;82.38;101133.31;1048779;28;20113;-80
2021/04/06 02:18:03;;;;;;;9.75;3.05;;;;;;;0.85;82.29;101130.31;1049154;28;20095;-81
2021/04/06 02:18:34;;;;;;;12.75;4.22;;;;;;;0.90;82.52;101135.66;1044827;28;20420;-81
2021/04/06 02:19:05;;;;;;;16.85;4.43;;;;;;;0.81;83.02;101130.06;1040921;28;20433;-80
2021/04/06 02:19:41;;;;;;;9.52;4.03;;;;;;;0.81;82.69;101124.97;1040791;28;20049;-81
2021/04/06 02:20:25;;;;;;;18.83;4.70;;;;;;;0.83;82.49;101128.47;1041836;28;20046;-80
2021/04/06 02:20:59;;;;;;;15.80;4.45;;;;;;;0.83;82.68;101138.66;1044933;28;20041;-80
2021/04/06 02:21:30;;;;;;;17.30;4.40;;;;;;;0.83;82.49;101146.28;1040041;28;20076;-80
2021/04/06 02:22:08;;;;;;;16.38;3.92;;;;;;;0.87;82.07;101140.59;1040814;28;20128;-81
2021/04/06 02:22:39;;;;;;;11.88;3.20;;;;;;;0.81;81.71;101115.66;1036598;28;20045;-81
2021/04/06 02:23:11;;;;;;;8.13;4.07;;;;;;;0.87;81.84;101136.38;1037929;28;20049;-81
2021/04/06 02:23:44;;;;;;;12.68;3.13;;;;;;;0.85;81.61;101132.88;1040667;28;20065;-81
2021/04/06 02:24:45;;;;;;;14.70;4.15;;;;;;;0.85;81.50;101134.50;1040875;28;20056;-81
2021/04/06 02:25:16;;;;;;;8.50;2.67;;;;;;;0.80;82.22;101121.53;1037056;28;20045;-80
2021/04/06 02:25:52;;;;;;;13.65;3.22;;;;;;;0.85;81.48;101137.06;1036882;28;20054;-80
2021/04/06 02:26:24;;;;;;;13.68;3.47;;;;;;;0.77;81.98;101134.94;1036757;28;20505;-80
2021/04/06 02:27:01;;;;;;;16.05;4.88;;;;;;;0.79;81.69;101141.03;1029776;28;20477;-80
2021/04/06 02:27:34;;;;;;;13.55;3.53;;;;;;;0.81;81.32;101132.59;1034525;28;20058;-80
2021/04/06 02:28:07;;;;;;;10.90;3.75;;;;;;;0.83;81.73;101148.84;1032771;28;20133;-80
2021/04/06 02:28:38;;;;;;;10.30;3.13;;;;;;;0.73;81.87;101127.91;1035833;28;20065;-81
2021/04/06 02:29:09;;;;;;;12.35;4.30;;;;;;;0.72;81.21;101128.72;1041668;28;20564;-78
2021/04/06 02:29:43;;;;;;;18.92;3.30;;;;;;;0.80;81.30;101149.53;1044879;28;20052;-80
2021/04/06 02:30:15;;;;;;;12.27;3.28;;;;;;;0.71;81.68;101129.50;1043931;28;20102;-80
2021/04/06 02:31:00;;;;;;;12.85;3.70;;;;;;;0.75;80.97;101136.53;1041082;28;20075;-81
2021/04/06 02:31:31;;;;;;;14.68;4.50;;;;;;;0.72;81.27;101123.63;1039529;28;20107;-79
2021/04/06 02:32:07;;;;;;;20.13;5.30;;;;;;;0.72;82.19;101140.56;1036882;28;20045;-79
2021/04/06 02:32:38;;;;;;;10.93;3.30;;;;;;;0.74;81.07;101136.47;1036686;28;20049;-80
2021/04/06 02:33:09;;;;;;;13.98;4.55;;;;;;;0.73;81.26;101142.31;1037466;28;20413;-79
2021/04/06 02:33:40;;;;;;;16.00;3.70;;;;;;;0.77;80.07;101136.63;1037641;28;20526;-80
2021/04/06 02:34:12;;;;;;;11.05;3.35;;;;;;;0.77;80.13;101134.94;1043389;28;20053;-79
2021/04/06 02:34:49;;;;;;;15.25;3.47;;;;;;;0.77;80.46;101150.22;1040596;28;20049;-79
2021/04/06 02:35:22;;;;;;;14.63;4.72;;;;;;;0.72;81.10;101141.44;1036641;28;20052;-79
2021/04/06 02:36:14;;;;;;;11.15;4.88;;;;;;;0.67;81.15;101147.91;1038160;28;20080;-79
2021/04/06 02:36:46;;;;;;;11.85;4.40;;;;;;;0.61;80.77;101137.38;1044802;28;20053;-79
2021/04/06 02:37:30;;;;;;;12.23;4.15;;;;;;;0.68;80.64;101144.63;1044812;28;20049;-80
2021/04/06 02:38:04;;;;;;;8.40;2.70;;;;;;;0.63;80.63;101133.28;1040815;28;20180;-79
2021/04/06 02:38:55;;;;;;;12.23;3.70;;;;;;;0.67;80.60;101147.03;1040693;28;20056;-79
2021/04/06 02:39:26;;;;;;;11.30;3.70;;;;;;;0.61;80.49;101139.06;1043455;28;20493;-79
2021/04/06 02:40:00;;;;;;;13.90;3.75;;;;;;;0.63;81.08;101150.22;1037248;28;20052;-79
2021/04/06 02:40:31;;;;;;;5.28;1.80;;;;;;;0.61;79.98;101142.47;1036068;28;20046;-80
2021/04/06 02:41:17;;;;;;;13.27;2.65;;;;;;;0.70;79.40;101152.34;1036428;28;20050;-79
2021/04/06 02:41:48;;;;;;;8.07;2.25;;;;;;;0.67;79.94;101152.13;1033972;28;20050;-79
2021/04/06 02:42:27;;;;;;;15.05;4.05;;;;;;;0.69;79.14;101150.59;1039002;28;20061;-78
2021/04/06 02:43:53;;;;;;;7.75;2.58;;;;;;;0.70;78.98;101147.25;1040639;28;20050;-79